createdAt,value
2022-11-10T00:00:25.616Z,96.22
2022-11-10T00:03:13.998Z,85.97
2022-11-10T00:06:04.505Z,74.65
2022-11-10T00:08:51.989Z,74.90
2022-11-10T00:11:40.199Z,68.93
2022-11-10T00:14:46.683Z,60.45
2022-11-10T00:17:34.173Z,59.17
2022-11-10T00:20:21.959Z,60.95
2022-11-10T00:23:09.820Z,54.30
2022-11-10T00:25:57.041Z,53.33
2022-11-10T00:28:45.030Z,58.85
2022-11-10T00:31:32.335Z,53.78
2022-11-10T00:34:19.924Z,48.17
2022-11-10T00:37:07.239Z,50.15
2022-11-10T00:39:54.822Z,48.80
2022-11-10T00:42:42.428Z,48.38
2022-11-10T00:45:30.219Z,43.95
2022-11-10T00:48:17.215Z,36.40
2022-11-10T00:51:05.328Z,50.50
2022-11-10T00:53:53.761Z,42.58
2022-11-10T00:56:41.031Z,67.65
2022-11-10T00:59:28.271Z,61.08
2022-11-10T01:02:19.991Z,63.28
2022-11-10T01:05:10.759Z,68.70
2022-11-10T01:08:05.800Z,50.80
2022-11-10T01:11:03.248Z,46.15
2022-11-10T01:13:57.658Z,44.22
2022-11-10T01:16:47.155Z,45.75
2022-11-10T01:19:35.997Z,60.55
2022-11-10T01:22:24.393Z,59.03
2022-11-10T01:25:12.515Z,42.75
2022-11-10T01:28:00.287Z,56.22
2022-11-10T01:30:49.259Z,64.85
2022-11-10T01:33:37.829Z,65.88
2022-11-10T01:36:26.501Z,67.72
2022-11-10T01:39:14.987Z,64.85
2022-11-10T01:42:03.142Z,60.83
2022-11-10T01:45:24.500Z,69.45
2022-11-10T01:48:18.486Z,63.60
2022-11-10T01:51:25.801Z,62.97
2022-11-10T01:54:20.813Z,53.65
2022-11-10T01:57:12.952Z,64.85
2022-11-10T02:00:01.614Z,49.03
2022-11-10T02:03:19.679Z,55.83
2022-11-10T02:06:10.030Z,82.65
2022-11-10T02:09:00.933Z,72.85
2022-11-10T02:11:53.470Z,62.42
2022-11-10T02:14:41.800Z,53.97
2022-11-10T02:17:29.835Z,54.40
2022-11-10T02:20:21.062Z,45.75
2022-11-10T02:23:36.127Z,56.25
2022-11-10T02:26:32.252Z,56.03
2022-11-10T02:29:21.029Z,67.65
2022-11-10T02:32:09.395Z,720.55
2022-11-10T02:34:57.483Z,50.42
2022-11-10T02:37:45.706Z,115.28
2022-11-10T02:40:33.593Z,65.32
2022-11-10T02:43:22.424Z,74.10
2022-11-10T02:46:10.512Z,112.97
2022-11-10T02:48:59.381Z,71.57
2022-11-10T02:51:47.667Z,66.13
2022-11-10T02:54:36.432Z,39.97
2022-11-10T02:57:24.693Z,58.42
2022-11-10T03:00:13.596Z,44.25
2022-11-10T03:03:03.678Z,46.35
2022-11-10T03:05:52.039Z,41.03
2022-11-10T03:08:41.047Z,35.63
2022-11-10T03:11:32.267Z,37.00
2022-11-10T03:14:20.887Z,30.42
2022-11-10T03:17:09.712Z,45.38
2022-11-10T03:19:58.127Z,37.22
2022-11-10T03:22:46.930Z,26.58
2022-11-10T03:25:36.504Z,31.27
2022-11-10T03:28:24.887Z,29.33
2022-11-10T03:31:13.186Z,28.13
2022-11-10T03:34:01.685Z,21.35
2022-11-10T03:36:49.889Z,30.27
2022-11-10T03:39:38.403Z,29.50
2022-11-10T03:42:26.960Z,27.08
2022-11-10T03:45:16.894Z,24.30
2022-11-10T03:48:05.342Z,21.35
2022-11-10T03:50:53.632Z,34.60
2022-11-10T03:53:41.701Z,55.50
2022-11-10T03:56:30.343Z,26.85
2022-11-10T03:59:18.552Z,28.63
2022-11-10T04:02:09.062Z,18.95
2022-11-10T04:05:15.582Z,16.70
2022-11-10T04:08:21.923Z,24.95
2022-11-10T04:11:10.811Z,26.80
2022-11-10T04:14:16.932Z,32.92
2022-11-10T04:17:06.111Z,26.67
2022-11-10T04:19:53.946Z,25.27
2022-11-10T04:23:00.605Z,22.65
2022-11-10T04:26:08.158Z,27.15
2022-11-10T04:28:59.079Z,26.63
2022-11-10T04:31:47.944Z,29.35
2022-11-10T04:34:36.518Z,20.02
2022-11-10T04:37:24.853Z,28.60
2022-11-10T04:40:16.196Z,24.52
2022-11-10T04:43:03.876Z,19.55
2022-11-10T04:45:52.362Z,19.50
2022-11-10T04:48:45.295Z,31.15
2022-11-10T04:51:36.296Z,23.45
2022-11-10T04:54:24.683Z,21.67
2022-11-10T04:57:13.524Z,32.22
2022-11-10T05:00:02.300Z,22.63
2022-11-10T05:02:50.324Z,35.80
2022-11-10T05:05:38.564Z,37.25
2022-11-10T05:08:26.523Z,28.58
2022-11-10T05:11:15.795Z,16.70
2022-11-10T05:14:03.590Z,27.33
2022-11-10T05:16:51.190Z,18.92
2022-11-10T05:19:39.535Z,23.27
2022-11-10T05:22:28.123Z,23.13
2022-11-10T05:25:16.058Z,16.90
2022-11-10T05:28:05.262Z,15.88
2022-11-10T05:30:54.300Z,14.18
2022-11-10T05:33:42.750Z,20.40
2022-11-10T05:36:30.993Z,18.05
2022-11-10T05:39:19.280Z,16.42
2022-11-10T05:42:07.736Z,29.60
2022-11-10T05:44:55.857Z,19.13
2022-11-10T05:47:44.989Z,23.63
2022-11-10T05:50:33.007Z,21.35
2022-11-10T05:53:22.272Z,19.40
2022-11-10T05:56:10.658Z,22.40
2022-11-10T05:58:59.445Z,25.52
2022-11-10T06:01:48.769Z,18.15
2022-11-10T06:04:36.763Z,22.73
2022-11-10T06:07:24.627Z,31.02
2022-11-10T06:10:12.851Z,21.10
2022-11-10T06:13:01.086Z,20.73
2022-11-10T06:15:50.709Z,19.63
2022-11-10T06:18:39.802Z,13.70
2022-11-10T06:21:28.796Z,20.52
2022-11-10T06:24:17.061Z,23.20
2022-11-10T06:27:05.093Z,13.23
2022-11-10T06:29:53.426Z,17.20
2022-11-10T06:32:46.074Z,19.90
2022-11-10T06:35:38.199Z,15.18
2022-11-10T06:38:26.755Z,14.07
2022-11-10T06:41:15.130Z,23.92
2022-11-10T06:44:03.554Z,17.90
2022-11-10T06:46:51.892Z,19.15
2022-11-10T06:49:43.020Z,19.65
2022-11-10T06:52:32.831Z,20.48
2022-11-10T06:55:20.799Z,25.75
2022-11-10T06:58:08.642Z,21.83
2022-11-10T07:00:56.660Z,20.27
2022-11-10T07:04:05.098Z,22.40
2022-11-10T07:06:52.031Z,31.73
2022-11-10T07:09:39.932Z,21.55
2022-11-10T07:12:27.726Z,22.15
2022-11-10T07:15:15.921Z,24.10
2022-11-10T07:18:04.908Z,18.38
2022-11-10T07:20:52.332Z,15.98
2022-11-10T07:23:40.236Z,20.45
2022-11-10T07:26:28.493Z,21.88
2022-11-10T07:29:16.004Z,17.33
2022-11-10T07:32:03.794Z,28.13
2022-11-10T07:34:51.565Z,20.75
2022-11-10T07:37:38.954Z,16.63
2022-11-10T07:40:27.106Z,19.38
2022-11-10T07:43:15.864Z,21.67
2022-11-10T07:46:04.409Z,23.73
2022-11-10T07:48:51.783Z,26.27
2022-11-10T07:51:45.037Z,15.13
2022-11-10T07:54:32.854Z,17.88
2022-11-10T07:57:21.022Z,22.90
2022-11-10T08:00:08.926Z,29.60
2022-11-10T08:03:02.504Z,19.13
2022-11-10T08:05:50.494Z,25.60
2022-11-10T08:08:38.838Z,29.63
2022-11-10T08:11:26.227Z,29.77
2022-11-10T08:14:14.110Z,19.15
2022-11-10T08:17:01.970Z,25.08
2022-11-10T08:19:49.788Z,24.17
2022-11-10T08:22:37.381Z,18.98
2022-11-10T08:25:26.380Z,25.08
2022-11-10T08:28:24.605Z,21.52
2022-11-10T08:31:12.227Z,31.55
2022-11-10T08:33:59.963Z,25.80
2022-11-10T08:36:47.541Z,27.10
2022-11-10T08:39:39.550Z,23.63
2022-11-10T08:42:28.366Z,29.52
2022-11-10T08:45:17.029Z,28.17
2022-11-10T08:48:08.539Z,32.53
2022-11-10T08:50:55.904Z,93.93
2022-11-10T08:53:43.780Z,35.13
2022-11-10T08:56:32.387Z,31.58
2022-11-10T08:59:19.721Z,37.60
2022-11-10T09:02:07.893Z,30.90
2022-11-10T09:04:55.390Z,30.45
2022-11-10T09:07:48.507Z,27.35
2022-11-10T09:10:39.087Z,29.75
2022-11-10T09:13:30.285Z,35.40
2022-11-10T09:16:18.397Z,28.63
2022-11-10T09:19:06.347Z,38.00
2022-11-10T09:21:54.438Z,44.13
2022-11-10T09:24:43.191Z,31.23
2022-11-10T09:27:31.416Z,33.15
2022-11-10T09:30:19.747Z,36.72
2022-11-10T09:33:07.393Z,34.53
2022-11-10T09:36:02.921Z,47.10
2022-11-10T09:38:50.532Z,43.53
2022-11-10T09:41:42.665Z,46.35
2022-11-10T09:44:30.365Z,42.75
2022-11-10T09:47:50.581Z,36.67
2022-11-10T09:50:50.233Z,34.33
2022-11-10T09:54:00.266Z,29.52
2022-11-10T09:56:48.458Z,30.27
2022-11-10T09:59:38.250Z,33.30
2022-11-10T10:02:41.208Z,31.95
2022-11-10T10:08:32.784Z,35.83
2022-11-10T10:11:41.126Z,53.80
2022-11-10T10:14:42.346Z,43.55
2022-11-10T10:17:40.812Z,38.25
2022-11-10T10:20:38.086Z,43.05
2022-11-10T10:24:07.162Z,41.40
2022-11-10T10:26:46.923Z,51.13
2022-11-10T10:29:56.788Z,62.47
2022-11-10T10:32:45.315Z,47.05
2022-11-10T10:35:40.570Z,37.15
2022-11-10T10:38:37.882Z,50.10
2022-11-10T10:41:28.508Z,52.78
2022-11-10T10:44:19.512Z,44.97
2022-11-10T10:47:09.993Z,55.15
2022-11-10T10:50:31.671Z,42.00
2022-11-10T10:53:26.366Z,50.65
2022-11-10T10:56:25.986Z,44.90
2022-11-10T10:59:22.923Z,37.85
2022-11-10T11:02:32.228Z,53.10
2022-11-10T11:05:24.270Z,42.38
2022-11-10T11:08:20.707Z,41.72
2022-11-10T11:11:10.660Z,44.97
2022-11-10T11:14:19.723Z,49.22
2022-11-10T11:17:22.681Z,54.35
2022-11-10T11:20:16.686Z,57.50
2022-11-10T11:23:36.349Z,51.83
2022-11-10T11:27:01.795Z,61.50
2022-11-10T11:30:30.211Z,56.65
2022-11-10T11:33:22.837Z,64.97
2022-11-10T11:36:19.449Z,80.00
2022-11-10T11:39:25.425Z,81.25
2022-11-10T11:42:27.704Z,75.65
2022-11-10T11:45:45.191Z,74.25
2022-11-10T11:48:55.045Z,77.18
2022-11-10T11:52:00.270Z,93.50
2022-11-10T11:55:17.082Z,72.90
2022-11-10T11:58:45.399Z,87.10
2022-11-10T12:01:41.915Z,92.93
2022-11-10T12:04:40.259Z,81.28
2022-11-10T12:07:51.849Z,86.95
2022-11-10T12:10:43.246Z,119.03
2022-11-10T12:13:46.360Z,109.05
2022-11-10T12:16:36.572Z,104.90
2022-11-10T12:19:33.172Z,112.85
2022-11-10T12:22:49.054Z,101.68
2022-11-10T12:25:45.922Z,109.55
2022-11-10T12:28:40.358Z,88.05
2022-11-10T12:31:31.552Z,83.25
2022-11-10T12:34:40.059Z,81.22
2022-11-10T12:37:37.289Z,86.13
2022-11-10T12:40:29.516Z,91.97
2022-11-10T12:43:46.123Z,92.65
2022-11-10T12:46:33.561Z,83.95
2022-11-10T12:49:32.878Z,72.60
2022-11-10T12:52:34.947Z,86.90
2022-11-10T12:55:33.751Z,94.47
2022-11-10T12:58:22.212Z,93.07
2022-11-10T13:01:19.821Z,107.60
2022-11-10T13:04:17.656Z,123.35
2022-11-10T13:07:12.907Z,147.65
2022-11-10T13:10:21.441Z,154.18
2022-11-10T13:13:21.343Z,176.27
2022-11-10T13:16:14.465Z,174.55
2022-11-10T13:22:38.618Z,150.18
2022-11-10T13:25:39.273Z,159.95
2022-11-10T13:28:56.636Z,168.13
2022-11-10T13:31:53.276Z,147.48
2022-11-10T13:34:45.566Z,138.02
2022-11-10T13:37:44.311Z,142.57
2022-11-10T13:40:39.244Z,107.43
2022-11-10T13:43:37.864Z,93.75
2022-11-10T13:46:39.642Z,93.55
2022-11-10T13:49:40.912Z,74.50
2022-11-10T13:52:50.650Z,85.38
2022-11-10T13:55:54.801Z,86.15
2022-11-10T13:58:49.696Z,96.43
2022-11-10T14:01:42.270Z,86.43
2022-11-10T14:04:46.219Z,88.40
2022-11-10T14:07:48.040Z,108.05
2022-11-10T14:11:14.992Z,91.45
2022-11-10T14:14:13.834Z,95.35
2022-11-10T14:17:15.772Z,97.45
2022-11-10T14:20:05.128Z,115.68
2022-11-10T14:22:56.799Z,99.40
2022-11-10T14:28:38.707Z,88.18
2022-11-10T14:31:30.333Z,102.25
2022-11-10T14:34:25.859Z,89.13
2022-11-10T14:37:38.577Z,91.18
2022-11-10T14:40:30.308Z,89.00
2022-11-10T14:43:41.178Z,95.22
2022-11-10T14:46:28.827Z,93.47
2022-11-10T14:49:30.872Z,86.47
2022-11-10T14:52:26.031Z,89.35
2022-11-10T14:55:34.471Z,113.90
2022-11-10T14:58:37.590Z,131.68
2022-11-10T15:04:34.453Z,141.57
2022-11-10T15:07:28.955Z,138.07
2022-11-10T15:10:45.466Z,121.53
2022-11-10T15:13:35.628Z,118.53
2022-11-10T15:16:37.551Z,121.15
2022-11-10T15:19:51.963Z,116.15
2022-11-10T15:22:43.714Z,122.75
2022-11-10T15:25:38.464Z,87.30
2022-11-10T15:28:33.896Z,96.63
2022-11-10T15:31:31.423Z,90.15
2022-11-10T15:34:43.292Z,100.70
2022-11-10T15:37:35.092Z,87.75
2022-11-10T15:40:37.778Z,101.00
2022-11-10T15:43:28.425Z,88.72
2022-11-10T15:46:21.417Z,120.03
2022-11-10T15:52:22.166Z,101.65
2022-11-10T15:55:25.483Z,121.55
2022-11-10T15:58:24.538Z,95.35
2022-11-10T16:01:14.438Z,95.85
2022-11-10T16:04:12.203Z,94.47
2022-11-10T16:07:22.241Z,109.72
2022-11-10T16:10:15.510Z,102.70
2022-11-10T16:13:05.087Z,96.43
2022-11-10T16:15:53.444Z,131.05
2022-11-10T16:18:53.263Z,133.48
2022-11-10T16:21:41.131Z,107.38
2022-11-10T16:24:29.060Z,117.00
2022-11-10T16:27:20.379Z,118.95
2022-11-10T16:30:20.935Z,134.32
2022-11-10T16:33:16.286Z,128.20
2022-11-10T16:36:09.842Z,126.57
2022-11-10T16:39:03.293Z,114.72
2022-11-10T16:41:53.013Z,117.28
2022-11-10T16:44:44.318Z,115.22
2022-11-10T16:47:36.798Z,113.00
2022-11-10T16:50:41.514Z,107.20
2022-11-10T16:53:33.450Z,119.47
2022-11-10T16:56:25.621Z,122.65
2022-11-10T16:59:26.225Z,128.32
2022-11-10T17:02:27.531Z,149.13
2022-11-10T17:05:22.343Z,121.93
2022-11-10T17:08:24.639Z,110.05
2022-11-10T17:11:19.453Z,107.95
2022-11-10T17:14:14.646Z,128.77
2022-11-10T17:17:14.339Z,119.30
2022-11-10T17:20:05.306Z,153.13
2022-11-10T17:22:54.969Z,141.80
2022-11-10T17:25:48.128Z,156.95
2022-11-10T17:28:38.903Z,135.07
2022-11-10T17:31:31.053Z,113.15
2022-11-10T17:34:38.803Z,103.87
2022-11-10T17:37:34.376Z,112.38
2022-11-10T17:40:27.842Z,95.25
2022-11-10T17:43:23.502Z,125.40
2022-11-10T17:46:11.602Z,109.18
2022-11-10T17:49:03.232Z,85.05
2022-11-10T17:51:56.410Z,89.80
2022-11-10T17:54:49.113Z,83.40
2022-11-10T17:57:38.733Z,89.95
2022-11-10T18:00:27.585Z,94.22
2022-11-10T18:03:22.667Z,86.50
2022-11-10T18:06:27.457Z,87.53
2022-11-10T18:09:16.795Z,71.85
2022-11-10T18:12:04.914Z,94.03
2022-11-10T18:14:55.099Z,98.03
2022-11-10T18:17:56.162Z,111.00
2022-11-10T18:20:47.658Z,104.03
2022-11-10T18:23:40.505Z,126.05
2022-11-10T18:26:30.884Z,150.20
2022-11-10T18:29:24.433Z,130.95
2022-11-10T18:32:15.559Z,109.32
2022-11-10T18:35:16.602Z,119.28
2022-11-10T18:38:11.285Z,116.35
2022-11-10T18:41:22.337Z,109.22
2022-11-10T18:44:27.469Z,109.38
2022-11-10T18:47:16.233Z,113.23
2022-11-10T18:50:10.022Z,104.10
2022-11-10T18:52:58.788Z,112.43
2022-11-10T18:55:57.238Z,98.90
2022-11-10T18:58:44.648Z,108.80
2022-11-10T19:01:36.513Z,108.50
2022-11-10T19:04:27.205Z,97.80
2022-11-10T19:07:15.510Z,104.38
2022-11-10T19:10:05.177Z,104.45
2022-11-10T19:12:54.354Z,96.32
2022-11-10T19:15:43.343Z,98.07
2022-11-10T19:18:31.929Z,113.15
2022-11-10T19:21:22.369Z,113.55
2022-11-10T19:24:10.390Z,107.63
2022-11-10T19:26:58.016Z,106.72
2022-11-10T19:29:45.969Z,129.52
2022-11-10T19:32:33.597Z,138.95
2022-11-10T19:35:24.618Z,133.82
2022-11-10T19:38:12.160Z,131.98
2022-11-10T19:41:00.703Z,136.43
2022-11-10T19:43:48.094Z,130.90
2022-11-10T19:46:38.227Z,136.82
2022-11-10T19:49:26.090Z,134.32
2022-11-10T19:52:13.315Z,143.48
2022-11-10T19:55:00.542Z,143.88
2022-11-10T19:57:48.004Z,150.15
2022-11-10T20:00:35.627Z,154.63
2022-11-10T20:03:25.414Z,168.38
2022-11-10T20:06:21.052Z,147.98
2022-11-10T20:09:08.863Z,150.43
2022-11-10T20:11:56.444Z,160.85
2022-11-10T20:14:44.071Z,163.95
2022-11-10T20:17:31.790Z,168.07
2022-11-10T20:20:19.910Z,167.38
2022-11-10T20:23:10.055Z,152.65
2022-11-10T20:26:10.478Z,159.02
2022-11-10T20:28:57.848Z,169.30
2022-11-10T20:31:45.770Z,163.77
2022-11-10T20:34:33.442Z,141.00
2022-11-10T20:37:21.321Z,135.63
2022-11-10T20:40:37.787Z,147.68
2022-11-10T20:43:17.165Z,129.05
2022-11-10T20:46:05.034Z,115.00
2022-11-10T20:48:52.647Z,107.65
2022-11-10T20:51:41.294Z,115.00
2022-11-10T20:54:29.024Z,117.60
2022-11-10T20:57:16.548Z,110.88
2022-11-10T21:00:04.321Z,113.82
2022-11-10T21:02:51.369Z,131.93
2022-11-10T21:05:39.544Z,138.23
2022-11-10T21:08:26.788Z,143.25
2022-11-10T21:11:34.013Z,142.30
2022-11-10T21:14:21.354Z,136.40
2022-11-10T21:17:09.026Z,151.75
2022-11-10T21:19:56.765Z,158.38
2022-11-10T21:22:44.348Z,159.82
2022-11-10T21:25:32.276Z,174.45
2022-11-10T21:28:20.173Z,164.73
2022-11-10T21:31:07.887Z,172.55
2022-11-10T21:33:59.314Z,158.68
2022-11-10T21:36:46.881Z,151.55
2022-11-10T21:39:34.607Z,134.57
2022-11-10T21:42:24.439Z,154.98
2022-11-10T21:45:13.245Z,142.30
2022-11-10T21:48:02.461Z,143.30
2022-11-10T21:50:50.099Z,124.88
2022-11-10T21:53:40.247Z,126.20
2022-11-10T21:56:27.586Z,96.00
2022-11-10T21:59:15.307Z,91.88
2022-11-10T22:02:02.950Z,91.10
2022-11-10T22:04:50.502Z,103.95
2022-11-10T22:07:39.817Z,105.55
2022-11-10T22:10:45.394Z,92.22
2022-11-10T22:13:50.914Z,96.90
2022-11-10T22:17:08.261Z,100.80
2022-11-10T22:19:55.946Z,108.35
2022-11-10T22:22:43.506Z,102.95
2022-11-10T22:25:30.776Z,125.05
2022-11-10T22:28:21.340Z,114.57
2022-11-10T22:31:11.866Z,117.97
2022-11-10T22:33:59.169Z,117.72
2022-11-10T22:36:47.498Z,131.43
2022-11-10T22:39:53.854Z,135.50
2022-11-10T22:42:59.899Z,142.43
2022-11-10T22:45:47.555Z,125.57
2022-11-10T22:48:35.193Z,172.90
2022-11-10T22:51:22.963Z,155.77
2022-11-10T22:54:16.293Z,146.98
2022-11-10T22:57:04.056Z,141.18
2022-11-10T22:59:51.418Z,121.50
2022-11-10T23:02:39.017Z,129.30
2022-11-10T23:05:26.503Z,121.88
2022-11-10T23:08:14.154Z,136.70
2022-11-10T23:11:11.824Z,136.90
2022-11-10T23:13:59.819Z,159.88
2022-11-10T23:16:46.834Z,158.55
2022-11-10T23:19:34.421Z,139.98
2022-11-10T23:22:21.434Z,137.07
2022-11-10T23:25:09.579Z,132.07
2022-11-10T23:27:58.136Z,119.57
2022-11-10T23:30:45.494Z,120.32
2022-11-10T23:33:33.336Z,126.35
2022-11-10T23:36:23.092Z,139.65
2022-11-10T23:39:10.748Z,146.55
2022-11-10T23:41:58.583Z,163.52
2022-11-10T23:44:46.104Z,138.02
2022-11-10T23:47:33.979Z,139.60
2022-11-10T23:50:21.199Z,150.18
2022-11-10T23:53:08.781Z,131.85
2022-11-10T23:56:01.081Z,129.63
2022-11-10T23:58:48.826Z,119.23
